createdAt,value
2019-04-10T00:02:46.383Z,34.83
2019-04-10T00:05:50.339Z,33.10
2019-04-10T00:08:54.843Z,41.67
2019-04-10T00:11:59.403Z,40.70
2019-04-10T00:15:03.278Z,39.73
2019-04-10T00:18:07.479Z,41.67
2019-04-10T00:21:11.567Z,47.87
2019-04-10T00:24:15.746Z,51.70
2019-04-10T00:27:20.709Z,50.53
2019-04-10T00:30:25.131Z,55.53
2019-04-10T00:33:29.131Z,58.57
2019-04-10T00:36:33.271Z,62.87
2019-04-10T00:39:37.772Z,64.53
2019-04-10T00:42:41.641Z,62.63
2019-04-10T00:45:46.007Z,65.23
2019-04-10T00:48:50.280Z,67.37
2019-04-10T00:51:55.368Z,65.10
2019-04-10T00:54:59.477Z,71.40
2019-04-10T00:58:03.671Z,63.33
2019-04-10T01:01:07.886Z,68.87
2019-04-10T01:04:12.424Z,72.43
2019-04-10T01:07:16.874Z,69.13
2019-04-10T01:10:21.988Z,66.33
2019-04-10T01:13:27.111Z,70.07
2019-04-10T01:16:31.429Z,68.33
2019-04-10T01:19:36.427Z,69.20
2019-04-10T01:22:41.494Z,66.60
2019-04-10T01:25:46.453Z,68.03
2019-04-10T01:28:51.282Z,64.30
2019-04-10T01:31:55.351Z,72.00
2019-04-10T01:35:00.149Z,62.53
2019-04-10T01:38:06.129Z,65.83
2019-04-10T01:41:11.875Z,64.63
2019-04-10T01:44:15.696Z,59.17
2019-04-10T01:47:19.929Z,64.27
2019-04-10T01:50:24.427Z,71.67
2019-04-10T01:53:28.329Z,65.33
2019-04-10T01:56:34.752Z,65.17
2019-04-10T01:59:42.421Z,63.73
2019-04-10T02:02:51.785Z,62.20
2019-04-10T02:05:56.750Z,61.13
2019-04-10T02:09:00.654Z,64.23
2019-04-10T02:12:06.205Z,61.83
2019-04-10T02:15:13.939Z,61.47
2019-04-10T02:18:17.252Z,61.13
2019-04-10T02:21:21.215Z,63.30
2019-04-10T02:24:25.366Z,59.93
2019-04-10T02:27:30.111Z,66.63
2019-04-10T02:30:36.327Z,62.00
2019-04-10T02:33:41.206Z,63.40
2019-04-10T02:36:46.542Z,61.67
2019-04-10T02:39:56.097Z,62.10
2019-04-10T02:42:59.127Z,62.23
2019-04-10T02:46:04.048Z,62.93
2019-04-10T02:49:09.074Z,63.43
2019-04-10T02:52:14.671Z,64.13
2019-04-10T02:55:18.900Z,67.93
2019-04-10T02:58:24.662Z,59.73
2019-04-10T03:01:29.019Z,65.00
2019-04-10T03:04:35.076Z,65.93
2019-04-10T03:07:40.327Z,66.67
2019-04-10T03:10:50.615Z,62.77
2019-04-10T03:13:51.208Z,62.90
2019-04-10T03:16:55.514Z,57.33
2019-04-10T03:20:00.215Z,65.17
2019-04-10T03:23:05.246Z,59.53
2019-04-10T03:26:09.713Z,56.50
2019-04-10T03:29:13.847Z,57.37
2019-04-10T03:32:38.852Z,60.00
2019-04-10T03:35:49.572Z,61.83
2019-04-10T03:39:00.084Z,61.53
2019-04-10T03:41:58.952Z,61.67
2019-04-10T03:45:03.310Z,59.27
2019-04-10T03:48:08.425Z,63.37
2019-04-10T03:51:12.659Z,64.00
2019-04-10T03:54:16.607Z,64.53
2019-04-10T03:57:23.195Z,64.33
2019-04-10T04:00:27.883Z,67.87
2019-04-10T04:03:32.956Z,64.03
2019-04-10T04:06:37.126Z,65.97
2019-04-10T04:09:41.857Z,66.70
2019-04-10T04:12:46.766Z,65.10
2019-04-10T04:15:51.198Z,60.17
2019-04-10T04:18:55.586Z,64.63
2019-04-10T04:22:00.613Z,72.17
2019-04-10T04:25:05.184Z,66.63
2019-04-10T04:28:09.300Z,67.73
2019-04-10T04:31:13.220Z,65.23
2019-04-10T04:34:18.431Z,66.53
2019-04-10T04:37:22.866Z,61.97
2019-04-10T04:40:27.849Z,66.47
2019-04-10T04:43:32.771Z,63.77
2019-04-10T04:46:36.678Z,70.03
2019-04-10T04:49:40.566Z,67.13
2019-04-10T04:52:45.668Z,69.57
2019-04-10T04:55:49.509Z,66.43
2019-04-10T04:58:53.898Z,64.37
2019-04-10T05:01:58.132Z,66.47
2019-04-10T05:05:02.510Z,60.67
2019-04-10T05:08:07.335Z,67.13
2019-04-10T05:11:12.481Z,65.27
2019-04-10T05:14:17.499Z,68.33
2019-04-10T05:17:22.224Z,66.43
2019-04-10T05:20:40.270Z,66.20
2019-04-10T05:23:33.098Z,66.13
2019-04-10T05:26:37.433Z,65.87
2019-04-10T05:29:41.229Z,65.63
2019-04-10T05:32:45.603Z,66.27
2019-04-10T05:35:49.483Z,65.37
2019-04-10T05:38:54.387Z,65.70
2019-04-10T05:42:00.685Z,66.87
2019-04-10T05:45:04.978Z,67.37
2019-04-10T05:48:08.918Z,64.47
2019-04-10T05:51:12.842Z,64.63
2019-04-10T05:54:17.165Z,64.87
2019-04-10T05:57:21.710Z,63.70
2019-04-10T06:00:25.711Z,69.03
2019-04-10T06:03:30.318Z,65.80
2019-04-10T06:06:34.678Z,70.57
2019-04-10T06:09:38.794Z,65.40
2019-04-10T06:12:43.302Z,65.97
2019-04-10T06:15:47.526Z,62.73
2019-04-10T06:18:53.556Z,60.97
2019-04-10T06:21:57.629Z,60.90
2019-04-10T06:25:03.664Z,65.23
2019-04-10T06:28:07.408Z,69.77
2019-04-10T06:31:12.602Z,61.90
2019-04-10T06:34:18.590Z,61.90
2019-04-10T06:37:22.201Z,59.70
2019-04-10T06:40:27.989Z,59.30
2019-04-10T06:43:32.974Z,60.90
2019-04-10T06:46:38.915Z,57.37
2019-04-10T06:49:43.375Z,58.87
2019-04-10T06:52:47.259Z,58.93
2019-04-10T06:55:52.355Z,60.07
2019-04-10T06:58:56.328Z,57.33
2019-04-10T07:02:13.608Z,57.37
2019-04-10T07:05:09.283Z,56.23
2019-04-10T07:08:17.219Z,50.93
2019-04-10T07:11:19.927Z,55.37
2019-04-10T07:14:24.597Z,55.80
2019-04-10T07:17:29.211Z,58.70
2019-04-10T07:20:33.706Z,55.50
2019-04-10T07:23:38.709Z,50.83
2019-04-10T07:26:46.306Z,47.20
2019-04-10T07:29:52.309Z,54.17
2019-04-10T07:32:55.138Z,47.83
2019-04-10T07:35:59.392Z,50.83
2019-04-10T07:39:05.496Z,51.03
2019-04-10T07:42:09.988Z,46.53
2019-04-10T07:45:14.445Z,46.53
2019-04-10T07:48:18.532Z,48.20
2019-04-10T07:51:22.331Z,47.83
2019-04-10T07:54:26.856Z,53.20
2019-04-10T07:57:31.278Z,52.13
2019-04-10T08:00:36.563Z,50.37
2019-04-10T08:03:41.625Z,47.60
2019-04-10T08:06:46.763Z,46.63
2019-04-10T08:09:51.888Z,55.63
2019-04-10T08:12:56.206Z,51.50
2019-04-10T08:16:00.892Z,50.47
2019-04-10T08:19:06.170Z,50.40
2019-04-10T08:22:12.131Z,48.03
2019-04-10T08:25:16.368Z,49.20
2019-04-10T08:28:20.538Z,47.17
2019-04-10T08:31:25.325Z,36.57
2019-04-10T08:34:29.764Z,36.67
2019-04-10T08:37:34.718Z,31.77
2019-04-10T08:40:38.609Z,30.93
2019-04-10T08:43:44.010Z,32.80
2019-04-10T08:46:48.299Z,28.53
2019-04-10T08:49:52.851Z,29.90
2019-04-10T08:52:57.911Z,29.00
2019-04-10T08:56:02.466Z,38.23
2019-04-10T08:59:07.578Z,28.93
2019-04-10T09:02:11.957Z,26.60
2019-04-10T09:05:17.439Z,31.07
2019-04-10T09:08:21.365Z,31.70
2019-04-10T09:11:28.429Z,28.07
2019-04-10T09:14:31.348Z,26.40
2019-04-10T09:17:35.658Z,26.10
2019-04-10T09:20:40.578Z,28.50
2019-04-10T09:23:51.622Z,27.03
2019-04-10T09:26:50.816Z,26.27
2019-04-10T09:29:56.355Z,26.23
2019-04-10T09:33:01.692Z,28.67
2019-04-10T09:36:06.289Z,26.00
2019-04-10T09:39:11.586Z,30.40
2019-04-10T09:42:15.664Z,26.30
2019-04-10T09:45:19.979Z,25.90
2019-04-10T09:48:24.262Z,28.57
2019-04-10T09:51:29.699Z,27.87
2019-04-10T09:54:34.867Z,25.00
2019-04-10T09:57:39.194Z,25.13
2019-04-10T10:00:43.783Z,25.63
2019-04-10T10:03:48.719Z,27.00
2019-04-10T10:06:53.548Z,27.07
2019-04-10T10:09:59.693Z,24.37
2019-04-10T10:13:03.339Z,25.77
2019-04-10T10:16:08.519Z,25.20
2019-04-10T10:19:12.525Z,24.13
2019-04-10T10:22:16.874Z,25.50
2019-04-10T10:25:21.528Z,23.23
2019-04-10T10:28:27.010Z,27.37
2019-04-10T10:31:30.905Z,28.80
2019-04-10T10:34:35.065Z,26.67
2019-04-10T10:37:38.991Z,29.03
2019-04-10T10:40:43.700Z,27.43
2019-04-10T10:43:47.441Z,27.67
2019-04-10T10:46:51.893Z,29.87
2019-04-10T10:49:56.959Z,26.47
2019-04-10T10:53:01.478Z,26.77
2019-04-10T10:56:06.370Z,26.93
2019-04-10T10:59:13.425Z,25.50
2019-04-10T11:02:17.882Z,25.27
2019-04-10T11:05:23.173Z,27.47
2019-04-10T11:08:27.720Z,24.83
2019-04-10T11:11:32.650Z,24.17
2019-04-10T11:14:37.226Z,26.37
2019-04-10T11:17:42.168Z,23.57
2019-04-10T11:20:46.602Z,24.37
2019-04-10T11:23:50.881Z,24.10
2019-04-10T11:26:55.249Z,23.97
2019-04-10T11:30:00.840Z,24.17
2019-04-10T11:33:04.769Z,22.53
2019-04-10T11:36:09.832Z,24.63
2019-04-10T11:39:22.099Z,24.70
2019-04-10T11:42:21.221Z,23.60
2019-04-10T11:45:28.751Z,23.40
2019-04-10T11:48:32.301Z,22.60
2019-04-10T11:51:38.749Z,24.17
2019-04-10T11:54:44.943Z,20.77
2019-04-10T11:57:50.958Z,21.87
2019-04-10T12:00:56.428Z,19.20
2019-04-10T12:04:00.465Z,24.17
2019-04-10T12:07:06.020Z,22.67
2019-04-10T12:13:18.000Z,21.70
2019-04-10T12:16:23.143Z,19.30
2019-04-10T12:19:27.348Z,20.20
2019-04-10T12:22:31.732Z,18.50
2019-04-10T12:25:36.581Z,19.53
2019-04-10T12:28:40.550Z,20.63
2019-04-10T12:31:45.268Z,14.10
2019-04-10T12:34:49.267Z,15.70
2019-04-10T12:38:02.242Z,13.83
2019-04-10T12:40:59.712Z,15.87
2019-04-10T12:44:03.733Z,14.33
2019-04-10T12:47:13.415Z,18.20
2019-04-10T12:50:18.352Z,14.77
2019-04-10T12:53:23.311Z,15.10
2019-04-10T12:56:28.333Z,16.33
2019-04-10T12:59:33.195Z,15.50
2019-04-10T13:02:38.379Z,19.60
2019-04-10T13:05:43.028Z,17.10
2019-04-10T13:08:57.801Z,15.93
2019-04-10T13:11:53.155Z,17.70
2019-04-10T13:14:57.231Z,14.80
2019-04-10T13:18:01.913Z,16.77
2019-04-10T13:21:06.377Z,16.43
2019-04-10T13:24:11.568Z,17.10
2019-04-10T13:27:15.412Z,15.10
2019-04-10T13:30:20.543Z,14.47
2019-04-10T13:33:24.931Z,13.43
2019-04-10T13:36:29.365Z,14.87
2019-04-10T13:39:33.463Z,13.67
2019-04-10T13:42:37.566Z,12.77
2019-04-10T13:45:41.630Z,17.13
2019-04-10T13:48:45.872Z,14.83
2019-04-10T13:51:51.823Z,13.87
2019-04-10T13:54:56.002Z,13.20
2019-04-10T13:58:00.108Z,13.50
2019-04-10T14:01:07.218Z,16.87
2019-04-10T14:04:11.548Z,17.57
2019-04-10T14:07:16.115Z,14.60
2019-04-10T14:10:20.939Z,13.43
2019-04-10T14:13:25.038Z,13.70
2019-04-10T14:16:30.810Z,18.20
2019-04-10T14:19:35.217Z,18.30
2019-04-10T14:22:46.660Z,18.10
2019-04-10T14:25:56.689Z,16.53
2019-04-10T14:29:01.636Z,18.60
2019-04-10T14:32:09.221Z,16.17
2019-04-10T14:35:13.462Z,18.03
2019-04-10T14:38:17.255Z,17.70
2019-04-10T14:41:22.097Z,15.93
2019-04-10T14:44:27.000Z,15.20
2019-04-10T14:47:31.856Z,13.90
2019-04-10T14:50:35.798Z,18.47
2019-04-10T14:53:39.627Z,15.80
2019-04-10T14:56:44.376Z,16.80
2019-04-10T14:59:49.309Z,19.70
2019-04-10T15:02:53.524Z,20.17
2019-04-10T15:06:01.082Z,22.37
2019-04-10T15:09:18.726Z,23.60
2019-04-10T15:12:14.390Z,21.43
2019-04-10T15:15:18.653Z,23.47
2019-04-10T15:18:22.567Z,22.93
2019-04-10T15:21:27.025Z,21.50
2019-04-10T15:24:31.226Z,22.20
2019-04-10T15:27:35.517Z,21.93
2019-04-10T15:30:39.741Z,21.33
2019-04-10T15:33:44.493Z,23.57
2019-04-10T15:36:52.773Z,20.53
2019-04-10T15:39:56.721Z,20.37
2019-04-10T15:43:00.813Z,21.43
2019-04-10T15:46:04.723Z,18.07
2019-04-10T15:49:09.150Z,20.10
2019-04-10T15:52:14.276Z,21.20
2019-04-10T15:55:18.265Z,21.47
2019-04-10T15:58:23.447Z,19.70
2019-04-10T16:01:28.501Z,19.57
2019-04-10T16:04:33.730Z,21.27
2019-04-10T16:07:38.355Z,19.47
2019-04-10T16:10:57.235Z,18.80
2019-04-10T16:14:04.212Z,23.70
2019-04-10T16:17:22.266Z,19.97
2019-04-10T16:20:31.016Z,19.90
2019-04-10T16:23:40.703Z,20.13
2019-04-10T16:26:44.907Z,22.60
2019-04-10T16:29:48.993Z,18.57
2019-04-10T16:32:52.829Z,18.73
2019-04-10T16:35:56.981Z,18.60
2019-04-10T16:39:01.443Z,18.97
2019-04-10T16:42:06.511Z,18.97
2019-04-10T16:45:10.697Z,21.33
2019-04-10T16:48:15.062Z,20.40
2019-04-10T16:51:20.435Z,18.70
2019-04-10T16:54:25.030Z,18.30
2019-04-10T16:57:29.259Z,20.43
2019-04-10T17:00:34.020Z,18.10
2019-04-10T17:03:38.045Z,18.23
2019-04-10T17:06:42.379Z,18.77
2019-04-10T17:09:47.262Z,18.43
2019-04-10T17:12:51.905Z,17.93
2019-04-10T17:15:56.068Z,23.70
2019-04-10T17:18:59.912Z,17.80
2019-04-10T17:22:04.769Z,18.67
2019-04-10T17:25:09.658Z,20.00
2019-04-10T17:28:14.313Z,21.47
2019-04-10T17:31:18.577Z,20.63
2019-04-10T17:34:22.930Z,21.20
2019-04-10T17:37:27.498Z,17.00
2019-04-10T17:40:40.669Z,16.97
2019-04-10T17:43:37.614Z,18.33
2019-04-10T17:46:42.068Z,15.57
2019-04-10T17:49:47.700Z,19.27
2019-04-10T17:52:53.366Z,17.03
2019-04-10T17:55:58.049Z,18.87
2019-04-10T17:59:02.374Z,16.70
2019-04-10T18:02:09.695Z,15.80
2019-04-10T18:05:14.817Z,16.03
2019-04-10T18:08:18.976Z,15.93
2019-04-10T18:11:23.220Z,17.70
2019-04-10T18:14:27.085Z,15.50
2019-04-10T18:17:31.218Z,19.47
2019-04-10T18:20:35.935Z,15.67
2019-04-10T18:23:40.053Z,16.07
2019-04-10T18:26:43.982Z,14.33
2019-04-10T18:29:48.139Z,15.73
2019-04-10T18:32:51.997Z,17.60
2019-04-10T18:35:57.326Z,17.40
2019-04-10T18:39:01.811Z,18.47
2019-04-10T18:42:07.576Z,16.67
2019-04-10T18:45:11.858Z,16.53
2019-04-10T18:48:16.636Z,14.93
2019-04-10T18:51:21.513Z,12.33
2019-04-10T18:54:25.348Z,13.03
2019-04-10T18:57:32.434Z,16.70
2019-04-10T19:01:07.140Z,18.33
2019-04-10T19:04:18.312Z,16.83
2019-04-10T19:07:22.903Z,13.93
2019-04-10T19:10:26.832Z,17.90
2019-04-10T19:13:30.766Z,15.80
2019-04-10T19:16:35.214Z,16.30
2019-04-10T19:19:42.146Z,18.57
2019-04-10T19:22:44.802Z,14.07
2019-04-10T19:25:49.208Z,13.97
2019-04-10T19:28:53.593Z,16.23
2019-04-10T19:32:00.494Z,16.93
2019-04-10T19:35:06.907Z,19.40
2019-04-10T19:38:11.448Z,15.90
2019-04-10T19:41:25.045Z,19.77
2019-04-10T19:44:21.205Z,17.57
2019-04-10T19:47:26.255Z,15.93
2019-04-10T19:50:30.255Z,19.40
2019-04-10T19:53:35.287Z,20.53
2019-04-10T19:56:40.395Z,15.33
2019-04-10T19:59:46.003Z,14.63
2019-04-10T20:02:50.996Z,14.77
2019-04-10T20:05:55.635Z,15.20
2019-04-10T20:09:00.115Z,16.63
2019-04-10T20:12:04.415Z,15.80
2019-04-10T20:15:08.561Z,15.20
2019-04-10T20:18:12.733Z,15.67
2019-04-10T20:21:17.571Z,16.60
2019-04-10T20:24:21.493Z,19.53
2019-04-10T20:27:25.644Z,16.07
2019-04-10T20:30:31.211Z,15.43
2019-04-10T20:33:35.396Z,15.37
2019-04-10T20:36:40.137Z,14.97
2019-04-10T20:39:45.342Z,17.03
2019-04-10T20:42:50.758Z,12.60
2019-04-10T20:45:55.925Z,16.03
2019-04-10T20:49:00.602Z,14.73
2019-04-10T20:52:04.667Z,14.20
2019-04-10T20:55:09.118Z,13.83
2019-04-10T20:58:13.387Z,12.77
2019-04-10T21:01:17.355Z,13.87
2019-04-10T21:04:23.523Z,13.63
2019-04-10T21:07:27.999Z,17.10
2019-04-10T21:10:31.909Z,13.97
2019-04-10T21:13:35.979Z,17.00
2019-04-10T21:16:40.199Z,14.10
2019-04-10T21:19:45.285Z,14.07
2019-04-10T21:22:49.356Z,14.23
2019-04-10T21:25:53.248Z,16.27
2019-04-10T21:28:57.981Z,15.47
2019-04-10T21:32:23.988Z,11.90
2019-04-10T21:35:32.806Z,12.33
2019-04-10T21:38:36.851Z,13.83
2019-04-10T21:41:41.246Z,14.07
2019-04-10T21:44:45.553Z,13.13
2019-04-10T21:47:50.268Z,14.73
2019-04-10T21:50:54.192Z,11.97
2019-04-10T21:53:58.330Z,14.70
2019-04-10T21:57:02.576Z,12.37
2019-04-10T22:00:07.909Z,11.83
2019-04-10T22:03:13.412Z,12.80
2019-04-10T22:06:39.965Z,13.20
2019-04-10T22:10:13.786Z,10.90
2019-04-10T22:13:17.713Z,12.57
2019-04-10T22:16:24.063Z,12.87
2019-04-10T22:19:28.471Z,12.63
2019-04-10T22:22:33.023Z,15.40
2019-04-10T22:25:37.437Z,12.80
2019-04-10T22:28:41.887Z,16.97
2019-04-10T22:31:46.548Z,12.30
2019-04-10T22:34:51.327Z,15.07
2019-04-10T22:37:55.267Z,10.87
2019-04-10T22:40:59.438Z,12.00
2019-04-10T22:44:05.380Z,13.03
2019-04-10T22:47:09.614Z,11.93
2019-04-10T22:50:13.751Z,11.03
2019-04-10T22:53:17.739Z,12.10
2019-04-10T22:56:23.110Z,10.40
2019-04-10T22:59:28.488Z,14.03
2019-04-10T23:02:32.377Z,10.53
2019-04-10T23:05:36.565Z,9.87
2019-04-10T23:08:40.420Z,11.50
2019-04-10T23:11:46.544Z,10.37
2019-04-10T23:14:51.157Z,13.13
2019-04-10T23:17:55.137Z,9.47
2019-04-10T23:20:58.985Z,9.10
2019-04-10T23:24:03.406Z,8.50
2019-04-10T23:27:07.549Z,9.50
2019-04-10T23:30:17.019Z,11.80
2019-04-10T23:33:22.499Z,9.20
2019-04-10T23:36:26.549Z,8.87
2019-04-10T23:39:30.511Z,10.40
2019-04-10T23:42:35.785Z,10.63
2019-04-10T23:45:40.059Z,9.40
2019-04-10T23:48:44.703Z,9.43
2019-04-10T23:51:49.554Z,10.07
2019-04-10T23:54:54.114Z,8.50
2019-04-10T23:57:58.541Z,10.83
